Modern Express — H9DG — position and weather

sailwx.info

Track history (hours):
 
Tides and Currents Weather Stations Pressure Air Temp Water Temp Dewpoint Dewpoint Depression Visibility Wind Speed Wind Dir Waves Ship Positions

Modern Express

Last reported at 2014-Oct-24 06:30 UTC. Time now 2014-Oct-24 12:46 UTC.
Position N 38°50' W 009°51'.

Length 164 m; beam 28 m.

Type: Cargo ship. MMSI: 356187000.

Date/timePositionNaut miles runAvg speedWind from/ knotsBaromVisibWave heightAir tempDewpointWater temp
2014-Oct-24 06:30N 38°50' W 009°51'1414.2
2014-Oct-24 05:33N 38°36' W 009°52'1514.8
2014-Oct-24 04:33N 38°21' W 009°54'1514.8
2014-Oct-24 03:33N 38°07' W 009°56'1514.6
2014-Oct-24 02:33N 37°52' W 009°57'1414.5
2014-Oct-24 01:33N 37°38' W 009°59'1414.5
2014-Oct-24 00:33N 37°23' W 009°60'1414.1
2014-Oct-23 23:33N 37°09' W 010°02'1413.9
2014-Oct-23 22:33N 36°55' W 010°03'2114.1
2014-Oct-23 21:04N 36°34' W 010°05'714.5
2014-Oct-23 20:33N 36°27' W 010°07'107 9.7
2014-Oct-23 09:33N 34°46' W 010°50'1 0.6
2014-Oct-23 08:33N 34°46' W 010°50'2712.9
2014-Oct-23 06:30N 34°21' W 011°01'1414.7
2014-Oct-23 05:33N 34°08' W 011°06'1514.5
2014-Oct-23 04:33N 33°55' W 011°12'  
Track history (hours):
 
Tides and Currents Weather Stations Pressure Air Temp Water Temp Dewpoint Dewpoint Depression Visibility Wind Speed Wind Dir Waves Ship Positions

Modern Express

Last reported at 2014-Oct-24 06:30 UTC. Time now 2014-Oct-24 12:46 UTC.
Position N 38°50' W 009°51'.

Length 164 m; beam 28 m.

Type: Cargo ship. MMSI: 356187000.

Date/timePositionNaut miles runAvg speedWind from/ knotsBaromVisibWave heightAir tempDewpointWater temp
2014-Oct-24 06:30N 38°50' W 009°51'1414.2
2014-Oct-24 05:33N 38°36' W 009°52'1514.8
2014-Oct-24 04:33N 38°21' W 009°54'1514.8
2014-Oct-24 03:33N 38°07' W 009°56'1514.6
2014-Oct-24 02:33N 37°52' W 009°57'1414.5
2014-Oct-24 01:33N 37°38' W 009°59'1414.5
2014-Oct-24 00:33N 37°23' W 009°60'1414.1
2014-Oct-23 23:33N 37°09' W 010°02'1413.9
2014-Oct-23 22:33N 36°55' W 010°03'2114.1
2014-Oct-23 21:04N 36°34' W 010°05'714.5
2014-Oct-23 20:33N 36°27' W 010°07'107 9.7
2014-Oct-23 09:33N 34°46' W 010°50'1 0.6
2014-Oct-23 08:33N 34°46' W 010°50'2712.9
2014-Oct-23 06:30N 34°21' W 011°01'1414.7
2014-Oct-23 05:33N 34°08' W 011°06'1514.5
2014-Oct-23 04:33N 33°55' W 011°12'  

Dump ship's entire track history